Time;durP1;ratioP1;P1;durP2;ratioP2;P2;SDS_P1;SDS_P2;PMS_P1;PMS_P2;Temp;Humidity;BMP_temperature;BMP_pressure;BME280_temperature;BME280_humidity;BME280_pressure;Samples;Min_cycle;Max_cycle;Signal;HPM_P1;HPM_P2
2022/02/26 00:02:18;;;;;;;18.43;4.37;;;;;;;;;;4976573;28;20224;-71
2022/02/26 00:04:48;;;;;;;22.03;4.87;;;;;;;;;;4976411;28;20735;-70
2022/02/26 00:07:14;;;;;;;23.23;4.00;;;;;;;;;;4976742;28;20214;-72
2022/02/26 00:09:39;;;;;;;26.80;5.00;;;;;;;;;;4976780;28;20316;-72
2022/02/26 00:12:08;;;;;;;18.83;4.83;;;;;;;;;;4960147;28;20221;-72
2022/02/26 00:14:35;;;;;;;19.03;3.97;;;;;;;;;;4941876;28;20230;-72
2022/02/26 00:17:01;;;;;;;20.97;4.97;;;;;;;;;;4960706;28;20605;-71
2022/02/26 00:19:31;;;;;;;21.53;4.20;;;;;;;;;;4944234;28;20225;-72
2022/02/26 00:21:58;;;;;;;24.23;5.40;;;;;;;;;;4978570;28;20308;-72
2022/02/26 00:24:23;;;;;;;20.37;4.30;;;;;;;;;;4958969;28;20225;-71
2022/02/26 00:26:51;;;;;;;25.37;4.50;;;;;;;;;;4960406;28;20227;-71
2022/02/26 00:29:21;;;;;;;26.43;4.63;;;;;;;;;;4958776;28;20266;-72
2022/02/26 00:31:46;;;;;;;22.37;4.40;;;;;;;;;;4960496;28;20276;-72
2022/02/26 00:34:11;;;;;;;23.40;4.70;;;;;;;;;;4959555;28;20221;-70
2022/02/26 00:36:40;;;;;;;24.10;4.73;;;;;;;;;;4943861;28;20312;-72
2022/02/26 00:39:05;;;;;;;22.67;5.07;;;;;;;;;;4959732;28;20214;-72
2022/02/26 00:41:31;;;;;;;23.10;4.83;;;;;;;;;;4954207;28;20248;-72
2022/02/26 00:43:58;;;;;;;19.83;4.60;;;;;;;;;;4972063;28;20668;-72
2022/02/26 00:46:26;;;;;;;24.67;4.90;;;;;;;;;;4943287;28;20240;-71
2022/02/26 00:51:38;;;;;;;17.00;4.60;;;;;;;;;;4949740;28;20225;-72
2022/02/26 00:54:04;;;;;;;20.17;4.30;;;;;;;;;;4975576;28;20309;-72
2022/02/26 00:56:29;;;;;;;20.53;4.60;;;;;;;;;;4943881;28;20728;-72
2022/02/26 00:58:56;;;;;;;23.07;4.93;;;;;;;;;;4956489;28;20645;-72
2022/02/26 01:01:22;;;;;;;26.80;4.73;;;;;;;;;;4975212;28;20315;-72
2022/02/26 01:03:50;;;;;;;20.60;4.23;;;;;;;;;;4959981;28;20221;-72
2022/02/26 01:06:15;;;;;;;26.40;4.83;;;;;;;;;;4975958;28;20230;-71
2022/02/26 01:08:43;;;;;;;21.30;4.50;;;;;;;;;;4959760;28;20784;-71
2022/02/26 01:11:11;;;;;;;22.80;5.23;;;;;;;;;;4994084;28;20217;-71
2022/02/26 01:13:36;;;;;;;24.27;4.67;;;;;;;;;;4959028;28;20234;-71
2022/02/26 01:16:04;;;;;;;23.87;4.37;;;;;;;;;;4942566;28;20312;-73
2022/02/26 01:18:31;;;;;;;25.53;4.67;;;;;;;;;;4959474;28;20223;-71
2022/02/26 01:20:57;;;;;;;16.93;4.10;;;;;;;;;;4992967;28;20217;-71
2022/02/26 01:23:22;;;;;;;19.27;4.57;;;;;;;;;;4974889;28;20300;-71
2022/02/26 01:25:50;;;;;;;21.97;4.87;;;;;;;;;;4958769;28;20221;-72
2022/02/26 01:28:16;;;;;;;21.27;4.67;;;;;;;;;;4959222;28;20221;-72
2022/02/26 01:30:41;;;;;;;19.53;4.63;;;;;;;;;;4943474;28;20228;-71
2022/02/26 01:33:06;;;;;;;19.20;4.73;;;;;;;;;;4958775;28;20311;-72
2022/02/26 01:35:34;;;;;;;27.03;4.90;;;;;;;;;;4958417;28;20738;-72
2022/02/26 01:38:00;;;;;;;23.03;4.90;;;;;;;;;;4942899;28;20692;-72
2022/02/26 01:40:25;;;;;;;20.93;4.90;;;;;;;;;;4955570;28;20222;-71
2022/02/26 01:42:53;;;;;;;22.30;4.17;;;;;;;;;;4927553;28;20267;-72
2022/02/26 01:45:23;;;;;;;19.23;4.77;;;;;;;;;;4971032;28;20249;-71
2022/02/26 01:47:51;;;;;;;26.20;5.17;;;;;;;;;;4959105;28;20235;-71
2022/02/26 01:50:16;;;;;;;23.60;4.77;;;;;;;;;;4976192;28;20225;-71
2022/02/26 01:52:42;;;;;;;21.30;4.43;;;;;;;;;;4963248;28;20228;-71
2022/02/26 01:55:08;;;;;;;22.27;5.30;;;;;;;;;;4957037;28;20221;-71
2022/02/26 01:57:34;;;;;;;25.40;5.03;;;;;;;;;;4958060;28;20217;-72
2022/02/26 01:59:59;;;;;;;21.73;4.73;;;;;;;;;;4924148;28;20639;-71
2022/02/26 02:02:28;;;;;;;24.93;4.73;;;;;;;;;;4962743;28;20590;-71
2022/02/26 02:04:58;;;;;;;18.93;4.93;;;;;;;;;;4925107;28;20269;-71
2022/02/26 02:07:26;;;;;;;20.80;5.43;;;;;;;;;;4959140;28;20221;-71
2022/02/26 02:09:51;;;;;;;20.63;4.97;;;;;;;;;;4941370;28;20345;-71
2022/02/26 02:12:17;;;;;;;25.77;4.87;;;;;;;;;;4957563;28;20228;-71
2022/02/26 02:14:44;;;;;;;26.50;4.87;;;;;;;;;;4926226;28;20253;-71
2022/02/26 02:17:14;;;;;;;23.97;4.70;;;;;;;;;;4941847;28;20247;-71
2022/02/26 02:19:41;;;;;;;22.00;4.63;;;;;;;;;;4927624;28;20324;-71
2022/02/26 02:22:07;;;;;;;23.07;5.07;;;;;;;;;;4942571;28;20607;-71
2022/02/26 02:24:35;;;;;;;25.07;4.60;;;;;;;;;;4940043;28;20234;-71
2022/02/26 02:27:03;;;;;;;20.83;4.37;;;;;;;;;;4957303;28;20221;-71
2022/02/26 02:29:29;;;;;;;24.17;4.47;;;;;;;;;;4939894;28;20598;-71
2022/02/26 02:31:57;;;;;;;20.53;5.20;;;;;;;;;;4929413;28;20229;-71
2022/02/26 02:34:27;;;;;;;20.93;5.10;;;;;;;;;;4942255;28;20240;-71
2022/02/26 02:36:57;;;;;;;24.47;4.57;;;;;;;;;;4971197;28;20716;-71
2022/02/26 02:39:26;;;;;;;22.47;4.90;;;;;;;;;;4942056;28;20616;-71
2022/02/26 02:41:51;;;;;;;21.90;4.83;;;;;;;;;;4958493;28;20221;-72
2022/02/26 02:44:20;;;;;;;18.70;4.47;;;;;;;;;;4972916;28;20228;-71
2022/02/26 02:46:45;;;;;;;23.73;4.40;;;;;;;;;;4973889;28;20225;-71
2022/02/26 02:49:13;;;;;;;26.57;4.53;;;;;;;;;;4972774;28;20300;-71
2022/02/26 02:51:38;;;;;;;25.30;5.10;;;;;;;;;;4957891;28;20217;-71
2022/02/26 02:54:06;;;;;;;27.43;5.17;;;;;;;;;;4973150;28;20241;-72
2022/02/26 02:56:37;;;;;;;22.03;5.03;;;;;;;;;;4956545;28;20249;-71
2022/02/26 02:59:03;;;;;;;20.00;4.63;;;;;;;;;;4942209;28;20222;-72
2022/02/26 03:01:30;;;;;;;28.30;4.67;;;;;;;;;;4941669;28;20217;-71
2022/02/26 03:03:56;;;;;;;24.30;5.20;;;;;;;;;;4957354;28;20649;-71
2022/02/26 03:06:27;;;;;;;25.60;4.73;;;;;;;;;;4972971;28;20241;-71
2022/02/26 03:08:55;;;;;;;23.40;4.63;;;;;;;;;;4955921;28;20214;-72
2022/02/26 03:11:21;;;;;;;25.90;5.17;;;;;;;;;;4973098;28;20283;-71
2022/02/26 03:13:49;;;;;;;21.77;4.60;;;;;;;;;;4954512;28;20745;-71
2022/02/26 03:16:17;;;;;;;25.70;4.37;;;;;;;;;;4990904;28;20221;-71
2022/02/26 03:18:43;;;;;;;23.20;4.47;;;;;;;;;;4957725;28;20221;-71
2022/02/26 03:21:09;;;;;;;21.07;4.47;;;;;;;;;;4944703;28;20304;-71
2022/02/26 03:23:37;;;;;;;25.27;4.53;;;;;;;;;;4965747;28;20291;-71
2022/02/26 03:26:05;;;;;;;23.33;4.53;;;;;;;;;;4976169;28;20217;-72
2022/02/26 03:28:31;;;;;;;22.80;5.70;;;;;;;;;;4943704;28;20292;-71
2022/02/26 03:30:57;;;;;;;21.13;4.83;;;;;;;;;;4958892;28;20303;-71
2022/02/26 03:33:27;;;;;;;28.23;4.63;;;;;;;;;;4957633;28;20641;-72
2022/02/26 03:35:52;;;;;;;26.50;5.00;;;;;;;;;;4944253;28;20711;-71
2022/02/26 03:38:21;;;;;;;23.13;4.97;;;;;;;;;;4960838;28;20296;-71
2022/02/26 03:40:48;;;;;;;25.97;4.53;;;;;;;;;;4961889;28;20221;-71
2022/02/26 03:43:14;;;;;;;24.30;5.10;;;;;;;;;;4976572;28;20309;-70
2022/02/26 03:45:41;;;;;;;23.77;5.40;;;;;;;;;;4976918;28;20239;-71
2022/02/26 03:48:09;;;;;;;23.80;4.80;;;;;;;;;;4960994;28;20300;-71
2022/02/26 03:50:37;;;;;;;21.23;4.77;;;;;;;;;;4963330;28;20304;-71
2022/02/26 03:53:03;;;;;;;24.40;4.67;;;;;;;;;;4978694;28;20221;-71
2022/02/26 03:55:30;;;;;;;23.57;5.03;;;;;;;;;;4960567;28;20806;-71
2022/02/26 03:57:56;;;;;;;30.50;5.47;;;;;;;;;;4994168;28;20308;-71
2022/02/26 04:00:22;;;;;;;30.30;5.30;;;;;;;;;;4960318;28;20235;-71
2022/02/26 04:02:49;;;;;;;26.67;4.90;;;;;;;;;;4960956;28;20236;-71
2022/02/26 04:05:17;;;;;;;30.70;4.97;;;;;;;;;;4961870;28;20225;-71
2022/02/26 04:07:42;;;;;;;27.70;4.60;;;;;;;;;;4961266;28;20743;-71
2022/02/26 04:10:09;;;;;;;26.93;4.90;;;;;;;;;;4944394;28;20227;-72
2022/02/26 04:12:37;;;;;;;17.80;4.17;;;;;;;;;;4976791;28;20280;-71
2022/02/26 04:15:05;;;;;;;23.77;4.57;;;;;;;;;;4953531;28;20225;-72
2022/02/26 04:17:31;;;;;;;29.40;5.57;;;;;;;;;;4962703;28;20413;-71
2022/02/26 04:19:56;;;;;;;28.37;5.33;;;;;;;;;;4961515;28;20712;-71
2022/02/26 04:22:24;;;;;;;25.23;5.27;;;;;;;;;;4961897;28;20318;-71
2022/02/26 04:24:50;;;;;;;22.60;4.40;;;;;;;;;;4928319;28;20308;-71
2022/02/26 04:27:18;;;;;;;19.10;4.60;;;;;;;;;;4959294;28;20325;-71
2022/02/26 04:29:45;;;;;;;25.03;4.63;;;;;;;;;;4959185;28;20218;-71
2022/02/26 04:32:11;;;;;;;25.33;4.67;;;;;;;;;;4973524;28;20300;-71
2022/02/26 04:34:36;;;;;;;23.20;4.57;;;;;;;;;;4959695;28;20264;-71
2022/02/26 04:37:03;;;;;;;27.33;4.97;;;;;;;;;;4975758;28;20304;-71
2022/02/26 04:39:31;;;;;;;25.50;3.97;;;;;;;;;;4972721;28;20221;-71
2022/02/26 04:41:57;;;;;;;21.67;4.57;;;;;;;;;;4976408;28;20229;-71
2022/02/26 04:44:28;;;;;;;31.33;5.57;;;;;;;;;;4992832;28;20897;-71
2022/02/26 04:46:56;;;;;;;27.53;4.83;;;;;;;;;;4960017;28;20224;-71
2022/02/26 04:49:21;;;;;;;30.00;5.63;;;;;;;;;;4959713;28;20214;-72
2022/02/26 04:51:47;;;;;;;31.67;5.23;;;;;;;;;;4961041;28;20744;-71
2022/02/26 04:54:13;;;;;;;31.47;5.67;;;;;;;;;;4975002;28;20225;-71
2022/02/26 04:56:38;;;;;;;31.33;4.93;;;;;;;;;;4959101;28;20217;-71
2022/02/26 04:59:06;;;;;;;35.97;5.77;;;;;;;;;;4959402;28;20237;-71
2022/02/26 05:01:34;;;;;;;23.73;5.03;;;;;;;;;;4993393;28;20599;-71
2022/02/26 05:03:59;;;;;;;31.83;6.00;;;;;;;;;;4943649;28;20225;-71
2022/02/26 05:06:25;;;;;;;30.30;5.50;;;;;;;;;;4974767;28;20275;-72
2022/02/26 05:08:51;;;;;;;27.53;5.37;;;;;;;;;;4959584;28;20225;-71
2022/02/26 05:11:19;;;;;;;32.53;5.97;;;;;;;;;;4992921;28;20229;-71
2022/02/26 05:13:46;;;;;;;30.07;5.50;;;;;;;;;;4958805;28;20228;-71
2022/02/26 05:16:15;;;;;;;37.90;6.03;;;;;;;;;;4957514;28;20229;-71
2022/02/26 05:18:40;;;;;;;36.77;6.00;;;;;;;;;;4976362;28;20214;-70
2022/02/26 05:21:08;;;;;;;26.70;5.10;;;;;;;;;;4959570;28;20214;-71
2022/02/26 05:23:34;;;;;;;32.77;5.87;;;;;;;;;;4975397;28;20280;-71
2022/02/26 05:25:59;;;;;;;31.43;6.17;;;;;;;;;;4957389;28;20226;-71
2022/02/26 05:28:27;;;;;;;33.00;5.83;;;;;;;;;;4975212;28;20254;-71
2022/02/26 05:30:56;;;;;;;36.07;5.83;;;;;;;;;;4943647;28;20217;-71
2022/02/26 05:33:26;;;;;;;34.97;5.77;;;;;;;;;;4943135;28;21193;-71
2022/02/26 05:35:56;;;;;;;41.33;5.83;;;;;;;;;;4956268;28;20306;-71
2022/02/26 05:38:22;;;;;;;29.13;5.93;;;;;;;;;;4950975;28;20646;-71
2022/02/26 05:40:49;;;;;;;35.27;6.13;;;;;;;;;;4959191;28;20273;-71
2022/02/26 05:43:15;;;;;;;28.23;5.70;;;;;;;;;;4991840;28;20214;-72
2022/02/26 05:45:41;;;;;;;44.03;6.17;;;;;;;;;;4975277;28;20218;-72
2022/02/26 05:48:07;;;;;;;36.53;6.17;;;;;;;;;;4974752;28;20264;-72
2022/02/26 05:50:35;;;;;;;33.70;6.60;;;;;;;;;;4948090;28;20221;-71
2022/02/26 05:53:05;;;;;;;37.27;7.13;;;;;;;;;;4962542;28;20214;-71
2022/02/26 05:55:31;;;;;;;28.23;5.60;;;;;;;;;;4991494;28;20222;-72
2022/02/26 05:57:59;;;;;;;27.93;6.50;;;;;;;;;;4958586;28;20275;-71
2022/02/26 06:00:25;;;;;;;38.13;6.37;;;;;;;;;;4958426;28;20684;-72
2022/02/26 06:02:50;;;;;;;37.20;5.90;;;;;;;;;;4975122;28;20301;-72
2022/02/26 06:05:23;;;;;;;33.77;6.67;;;;;;;;;;4974046;28;20946;-71
2022/02/26 06:07:48;;;;;;;37.80;6.33;;;;;;;;;;4967233;28;20638;-71
2022/02/26 06:10:14;;;;;;;37.97;6.73;;;;;;;;;;4957301;28;20217;-72
2022/02/26 06:12:39;;;;;;;36.33;6.30;;;;;;;;;;4942590;28;20308;-72
2022/02/26 06:15:10;;;;;;;30.33;5.97;;;;;;;;;;4958104;28;20308;-72
2022/02/26 06:17:40;;;;;;;31.43;5.83;;;;;;;;;;4992221;28;20260;-71
2022/02/26 06:20:06;;;;;;;38.83;5.33;;;;;;;;;;4961648;28;20221;-72
2022/02/26 06:22:34;;;;;;;45.10;5.80;;;;;;;;;;4964198;28;20221;-72
2022/02/26 06:25:04;;;;;;;38.10;6.70;;;;;;;;;;4958000;28;20661;-71
2022/02/26 06:27:38;;;;;;;36.23;6.07;;;;;;;;;;4974023;28;20220;-72
2022/02/26 06:30:05;;;;;;;34.03;5.63;;;;;;;;;;4941306;28;20213;-72
2022/02/26 06:32:30;;;;;;;40.93;5.97;;;;;;;;;;4963348;28;20247;-71
2022/02/26 06:34:58;;;;;;;37.03;6.20;;;;;;;;;;4973428;28;20665;-71
2022/02/26 06:37:23;;;;;;;44.67;6.70;;;;;;;;;;4971410;28;20257;-72
2022/02/26 06:39:51;;;;;;;31.17;5.43;;;;;;;;;;4958000;28;20277;-71
2022/02/26 06:42:20;;;;;;;33.27;6.67;;;;;;;;;;4937876;28;20681;-71
2022/02/26 06:44:48;;;;;;;39.50;6.20;;;;;;;;;;4951849;28;20288;-71
2022/02/26 06:47:13;;;;;;;37.90;6.10;;;;;;;;;;4956199;28;20214;-71
2022/02/26 06:49:39;;;;;;;34.03;6.20;;;;;;;;;;4943440;28;20600;-71
2022/02/26 06:52:05;;;;;;;34.67;6.27;;;;;;;;;;4958232;28;20221;-72
2022/02/26 06:54:31;;;;;;;37.13;6.50;;;;;;;;;;4967953;28;20221;-71
2022/02/26 06:56:59;;;;;;;38.87;7.43;;;;;;;;;;4973013;28;20644;-72
2022/02/26 06:59:28;;;;;;;42.97;7.13;;;;;;;;;;4940191;28;20221;-71
2022/02/26 07:01:53;;;;;;;41.80;6.17;;;;;;;;;;4957945;28;20642;-69
2022/02/26 07:04:23;;;;;;;40.47;6.40;;;;;;;;;;4972653;28;20214;-72
2022/02/26 07:06:49;;;;;;;35.97;6.47;;;;;;;;;;4942484;28;20301;-72
2022/02/26 07:09:17;;;;;;;36.50;6.33;;;;;;;;;;4941415;28;20217;-71
2022/02/26 07:11:46;;;;;;;35.97;6.40;;;;;;;;;;4972495;28;20241;-70
2022/02/26 07:14:12;;;;;;;38.77;6.60;;;;;;;;;;4957177;28;20221;-72
2022/02/26 07:16:40;;;;;;;33.33;6.43;;;;;;;;;;4941830;28;20224;-72
2022/02/26 07:19:06;;;;;;;33.73;5.83;;;;;;;;;;4938717;28;20221;-72
2022/02/26 07:21:34;;;;;;;28.30;5.63;;;;;;;;;;4972864;28;20225;-72
2022/02/26 07:24:05;;;;;;;30.27;5.67;;;;;;;;;;4973452;28;20268;-72
2022/02/26 07:26:33;;;;;;;31.80;6.00;;;;;;;;;;4973680;28;20245;-72
2022/02/26 07:28:58;;;;;;;27.60;6.50;;;;;;;;;;4958443;28;20290;-72
2022/02/26 07:31:26;;;;;;;29.93;5.50;;;;;;;;;;4940864;28;20217;-72
2022/02/26 07:33:51;;;;;;;39.97;6.30;;;;;;;;;;4944948;28;20233;-72
2022/02/26 07:36:17;;;;;;;30.50;5.83;;;;;;;;;;4971131;28;20221;-72
2022/02/26 07:38:47;;;;;;;36.27;6.47;;;;;;;;;;4976233;28;20304;-72
2022/02/26 07:41:14;;;;;;;27.10;6.07;;;;;;;;;;4942235;28;20214;-72
2022/02/26 07:43:42;;;;;;;27.37;6.00;;;;;;;;;;4958108;28;20267;-72
2022/02/26 07:46:13;;;;;;;30.57;5.73;;;;;;;;;;4967264;28;20217;-74
2022/02/26 07:48:41;;;;;;;31.50;6.73;;;;;;;;;;4961241;28;20239;-72
2022/02/26 07:51:07;;;;;;;28.43;5.50;;;;;;;;;;4958265;28;20225;-73
2022/02/26 07:53:37;;;;;;;34.63;6.37;;;;;;;;;;4967336;28;20245;-73
2022/02/26 07:56:03;;;;;;;27.67;5.93;;;;;;;;;;4964546;28;20597;-72
2022/02/26 07:58:32;;;;;;;39.00;6.47;;;;;;;;;;4965238;28;20228;-73
2022/02/26 08:00:57;;;;;;;28.93;6.40;;;;;;;;;;4982189;28;20205;-73
2022/02/26 08:03:25;;;;;;;33.03;5.83;;;;;;;;;;4948819;28;20206;-73
2022/02/26 08:05:53;;;;;;;27.80;6.40;;;;;;;;;;4946259;28;20651;-72
2022/02/26 08:08:18;;;;;;;25.93;6.30;;;;;;;;;;4962285;28;20755;-72
2022/02/26 08:10:48;;;;;;;27.73;6.20;;;;;;;;;;4996111;28;20217;-72
2022/02/26 08:13:19;;;;;;;29.60;6.43;;;;;;;;;;4992582;28;20221;-71
2022/02/26 08:15:50;;;;;;;31.17;5.67;;;;;;;;;;4959478;28;20240;-71
2022/02/26 08:18:16;;;;;;;35.43;6.70;;;;;;;;;;4996376;28;20654;-72
2022/02/26 08:20:41;;;;;;;27.57;6.10;;;;;;;;;;4963693;28;20273;-72
2022/02/26 08:23:07;;;;;;;31.43;5.77;;;;;;;;;;4993866;28;20213;-72
2022/02/26 08:25:37;;;;;;;27.47;6.57;;;;;;;;;;4993512;28;20229;-72
2022/02/26 08:28:06;;;;;;;30.73;6.57;;;;;;;;;;4942972;28;20249;-73
2022/02/26 08:30:33;;;;;;;22.67;6.03;;;;;;;;;;4970497;28;20217;-72
2022/02/26 08:33:01;;;;;;;37.50;6.73;;;;;;;;;;4946205;28;20224;-72
2022/02/26 08:35:29;;;;;;;25.20;5.73;;;;;;;;;;4943122;28;20331;-72
2022/02/26 08:37:59;;;;;;;30.77;6.13;;;;;;;;;;4960393;28;20214;-72
2022/02/26 08:40:27;;;;;;;26.03;5.80;;;;;;;;;;4944116;28;20229;-72
2022/02/26 08:42:57;;;;;;;30.13;5.47;;;;;;;;;;4976472;28;20217;-72
2022/02/26 08:45:25;;;;;;;27.90;5.60;;;;;;;;;;4959806;28;20284;-71
2022/02/26 08:47:51;;;;;;;25.83;5.80;;;;;;;;;;4960115;28;20225;-72
2022/02/26 08:50:19;;;;;;;30.93;6.50;;;;;;;;;;4960747;28;20717;-72
2022/02/26 08:53:00;;;;;;;27.00;6.03;;;;;;;;;;4977463;28;20229;-71
2022/02/26 08:55:29;;;;;;;31.73;6.97;;;;;;;;;;4953813;28;20225;-70
2022/02/26 08:57:55;;;;;;;27.63;7.13;;;;;;;;;;4957386;28;20777;-70
2022/02/26 09:00:21;;;;;;;31.30;8.07;;;;;;;;;;4993373;28;20225;-73
2022/02/26 09:02:51;;;;;;;31.47;8.67;;;;;;;;;;4993523;28;20226;-73
2022/02/26 09:05:19;;;;;;;30.50;9.43;;;;;;;;;;4975227;28;20252;-72
2022/02/26 09:07:44;;;;;;;28.43;9.23;;;;;;;;;;4944803;28;20222;-73
2022/02/26 09:10:10;;;;;;;37.50;10.03;;;;;;;;;;4945262;28;20225;-72
2022/02/26 09:12:38;;;;;;;33.97;10.67;;;;;;;;;;4993729;28;20244;-71
2022/02/26 09:15:09;;;;;;;32.83;10.73;;;;;;;;;;4959583;28;20226;-73
2022/02/26 09:17:37;;;;;;;38.57;11.40;;;;;;;;;;4975925;28;20226;-71
2022/02/26 09:20:07;;;;;;;32.90;10.17;;;;;;;;;;4941355;28;20601;-71
2022/02/26 09:22:32;;;;;;;31.63;9.30;;;;;;;;;;4943581;28;20704;-71
2022/02/26 09:25:03;;;;;;;31.53;9.70;;;;;;;;;;4941202;28;20275;-72
2022/02/26 09:27:31;;;;;;;24.77;8.57;;;;;;;;;;4940560;28;20229;-72
2022/02/26 09:29:59;;;;;;;26.30;7.57;;;;;;;;;;4962507;28;20288;-71
2022/02/26 09:32:30;;;;;;;30.23;7.30;;;;;;;;;;4973618;28;20225;-71
2022/02/26 09:34:56;;;;;;;17.83;5.10;;;;;;;;;;4957300;28;20236;-71
2022/02/26 09:37:24;;;;;;;23.43;5.20;;;;;;;;;;4973896;28;20237;-72
2022/02/26 09:39:51;;;;;;;23.50;5.17;;;;;;;;;;4958532;28;20225;-73
2022/02/26 09:42:21;;;;;;;22.90;5.60;;;;;;;;;;4940500;28;20301;-74
2022/02/26 09:44:50;;;;;;;22.60;6.10;;;;;;;;;;4949614;28;20232;-73
2022/02/26 09:47:18;;;;;;;28.00;7.23;;;;;;;;;;4958816;28;20221;-73
2022/02/26 09:49:44;;;;;;;19.43;7.20;;;;;;;;;;4943665;28;20676;-73
2022/02/26 09:52:14;;;;;;;21.60;7.67;;;;;;;;;;4972930;28;20229;-73
2022/02/26 09:54:39;;;;;;;24.23;7.50;;;;;;;;;;4961311;28;20719;-73
2022/02/26 09:57:05;;;;;;;20.87;4.77;;;;;;;;;;4983383;28;20253;-74
2022/02/26 09:59:35;;;;;;;20.43;4.43;;;;;;;;;;4968477;28;20248;-74
2022/02/26 10:02:10;;;;;;;17.47;4.17;;;;;;;;;;4963211;28;20582;-73
2022/02/26 10:04:36;;;;;;;16.27;4.43;;;;;;;;;;4981559;28;20303;-73
2022/02/26 10:07:13;;;;;;;18.73;5.43;;;;;;;;;;4962372;28;20214;-74
2022/02/26 10:09:40;;;;;;;14.97;4.20;;;;;;;;;;4948283;28;20235;-72
2022/02/26 10:12:21;;;;;;;15.53;4.37;;;;;;;;;;4964348;28;20735;-73
2022/02/26 10:14:47;;;;;;;17.67;4.63;;;;;;;;;;4962134;28;20242;-73
2022/02/26 10:17:22;;;;;;;18.13;4.50;;;;;;;;;;4931684;28;20225;-73
2022/02/26 10:19:58;;;;;;;20.13;4.87;;;;;;;;;;4950179;28;20225;-72
2022/02/26 10:22:28;;;;;;;18.83;5.03;;;;;;;;;;4946566;28;20216;-72
2022/02/26 10:25:10;;;;;;;25.27;10.07;;;;;;;;;;4964015;28;20232;-72
2022/02/26 10:27:39;;;;;;;25.33;10.93;;;;;;;;;;4946078;28;20388;-71
2022/02/26 10:30:08;;;;;;;22.53;8.90;;;;;;;;;;4956753;28;20221;-72
2022/02/26 10:32:33;;;;;;;19.77;6.97;;;;;;;;;;4942818;28;20253;-72
2022/02/26 10:35:03;;;;;;;18.83;5.73;;;;;;;;;;4961188;28;20245;-71
2022/02/26 10:37:31;;;;;;;16.97;4.53;;;;;;;;;;4973887;28;20220;-71
2022/02/26 10:39:57;;;;;;;10.47;3.70;;;;;;;;;;4973956;28;20217;-71
2022/02/26 10:42:33;;;;;;;10.87;3.93;;;;;;;;;;4991426;28;20276;-71
2022/02/26 10:45:12;;;;;;;13.77;3.60;;;;;;;;;;4939257;28;20735;-70
2022/02/26 10:47:46;;;;;;;12.13;3.27;;;;;;;;;;4958822;28;20229;-72
2022/02/26 10:50:16;;;;;;;11.90;3.07;;;;;;;;;;4960107;28;20222;-72
2022/02/26 10:53:04;;;;;;;8.13;2.70;;;;;;;;;;4964301;28;20253;-72
2022/02/26 10:55:51;;;;;;;11.57;2.83;;;;;;;;;;4971790;28;20719;-72
2022/02/26 10:58:25;;;;;;;11.40;3.03;;;;;;;;;;4974381;28;20256;-73
2022/02/26 11:00:52;;;;;;;10.47;2.37;;;;;;;;;;4956481;28;20235;-71
2022/02/26 11:03:22;;;;;;;7.00;2.20;;;;;;;;;;4965606;28;20217;-72
2022/02/26 11:05:51;;;;;;;9.23;2.20;;;;;;;;;;4944693;28;20763;-72
2022/02/26 11:08:17;;;;;;;9.77;2.13;;;;;;;;;;4973217;28;20296;-72
2022/02/26 11:10:45;;;;;;;9.30;2.70;;;;;;;;;;4960539;28;20316;-72
2022/02/26 11:13:18;;;;;;;6.87;1.90;;;;;;;;;;4964150;28;20209;-72
2022/02/26 11:15:44;;;;;;;9.37;2.73;;;;;;;;;;4940062;28;20257;-72
2022/02/26 11:18:12;;;;;;;11.13;3.60;;;;;;;;;;4948225;28;20609;-72
2022/02/26 11:20:40;;;;;;;10.87;3.13;;;;;;;;;;4991769;28;20852;-71
2022/02/26 11:23:05;;;;;;;14.03;3.30;;;;;;;;;;4945421;28;20287;-72
2022/02/26 11:25:31;;;;;;;9.33;3.33;;;;;;;;;;4962242;28;20712;-72
2022/02/26 11:27:59;;;;;;;10.97;3.90;;;;;;;;;;4972777;28;20225;-72
2022/02/26 11:30:26;;;;;;;14.70;3.80;;;;;;;;;;4948352;28;20684;-72
2022/02/26 11:32:54;;;;;;;11.97;3.90;;;;;;;;;;4960544;28;20674;-70
2022/02/26 11:35:26;;;;;;;13.13;4.10;;;;;;;;;;4962527;28;20236;-73
2022/02/26 11:37:56;;;;;;;13.30;4.17;;;;;;;;;;4944439;28;20240;-72
2022/02/26 11:40:22;;;;;;;11.70;4.00;;;;;;;;;;4942895;28;20269;-72
2022/02/26 11:42:47;;;;;;;14.27;3.90;;;;;;;;;;4956837;28;20217;-72
2022/02/26 11:45:19;;;;;;;12.27;3.67;;;;;;;;;;4956459;28;20245;-71
2022/02/26 11:47:53;;;;;;;14.07;4.10;;;;;;;;;;4994709;28;20217;-72
2022/02/26 11:50:24;;;;;;;10.73;3.70;;;;;;;;;;4994744;28;20240;-72
2022/02/26 11:53:11;;;;;;;10.50;3.50;;;;;;;;;;4978422;28;20627;-71
2022/02/26 11:55:44;;;;;;;10.17;3.43;;;;;;;;;;4989614;28;20233;-72
2022/02/26 11:58:33;;;;;;;11.67;3.50;;;;;;;;;;4966880;28;20302;-72
2022/02/26 12:01:08;;;;;;;12.17;3.47;;;;;;;;;;4980979;28;20213;-72
2022/02/26 12:03:39;;;;;;;11.20;3.77;;;;;;;;;;4959147;28;20225;-72
2022/02/26 12:06:09;;;;;;;11.50;2.97;;;;;;;;;;4974144;28;20225;-72
2022/02/26 12:08:53;;;;;;;10.97;3.40;;;;;;;;;;4993807;28;20268;-71
2022/02/26 12:11:21;;;;;;;8.80;3.10;;;;;;;;;;4992943;28;20213;-72
2022/02/26 12:13:50;;;;;;;7.00;2.87;;;;;;;;;;4989857;28;20229;-72
2022/02/26 12:16:21;;;;;;;9.50;3.47;;;;;;;;;;4959737;28;20221;-72
2022/02/26 12:19:01;;;;;;;10.37;3.53;;;;;;;;;;4991134;28;20217;-72
2022/02/26 12:21:37;;;;;;;9.53;3.00;;;;;;;;;;4975865;28;20617;-72
2022/02/26 12:24:08;;;;;;;10.73;2.97;;;;;;;;;;4993950;28;20233;-72
2022/02/26 12:26:43;;;;;;;9.70;3.63;;;;;;;;;;4992508;28;20229;-72
2022/02/26 12:29:11;;;;;;;8.37;3.10;;;;;;;;;;4974571;28;20224;-70
2022/02/26 12:31:44;;;;;;;8.13;2.67;;;;;;;;;;4963648;28;20232;-70
2022/02/26 12:34:12;;;;;;;8.60;2.67;;;;;;;;;;4955481;28;20288;-70
2022/02/26 12:37:09;;;;;;;8.33;2.60;;;;;;;;;;4942540;28;20221;-70
2022/02/26 12:39:50;;;;;;;8.80;2.70;;;;;;;;;;4957146;28;20209;-70
2022/02/26 12:42:23;;;;;;;8.53;2.60;;;;;;;;;;4946686;28;20560;-70
2022/02/26 12:44:58;;;;;;;8.27;2.67;;;;;;;;;;4963464;28;20241;-70
2022/02/26 12:47:24;;;;;;;7.83;2.90;;;;;;;;;;4955834;28;20715;-70
2022/02/26 12:49:52;;;;;;;8.20;2.93;;;;;;;;;;4961608;28;20655;-71
2022/02/26 12:52:20;;;;;;;8.87;2.77;;;;;;;;;;4960512;28;20751;-71
2022/02/26 12:54:46;;;;;;;8.30;2.60;;;;;;;;;;4992785;28;20276;-71
2022/02/26 12:57:16;;;;;;;7.93;2.23;;;;;;;;;;4944404;28;20634;-71
2022/02/26 12:59:45;;;;;;;7.77;2.13;;;;;;;;;;4944337;28;20271;-71
2022/02/26 13:02:13;;;;;;;8.23;2.30;;;;;;;;;;4961766;28;20218;-72
2022/02/26 13:04:44;;;;;;;6.33;2.43;;;;;;;;;;4930198;28;20618;-70
2022/02/26 13:07:15;;;;;;;9.70;2.37;;;;;;;;;;4944133;28;20268;-70
2022/02/26 13:09:52;;;;;;;6.70;2.10;;;;;;;;;;4976672;28;20217;-71
2022/02/26 13:12:24;;;;;;;6.23;2.13;;;;;;;;;;4975035;28;20228;-71
2022/02/26 13:15:09;;;;;;;8.77;2.20;;;;;;;;;;4977076;28;20304;-70
2022/02/26 13:17:38;;;;;;;6.00;1.90;;;;;;;;;;4963073;28;20655;-71
2022/02/26 13:20:15;;;;;;;7.70;2.70;;;;;;;;;;4959631;28;20252;-71
2022/02/26 13:22:48;;;;;;;7.63;2.27;;;;;;;;;;4976507;28;20225;-70
2022/02/26 13:25:19;;;;;;;7.33;1.90;;;;;;;;;;4959070;28;20225;-71
2022/02/26 13:27:48;;;;;;;6.33;1.87;;;;;;;;;;4960037;28;20312;-71
2022/02/26 13:30:16;;;;;;;8.47;2.13;;;;;;;;;;4992610;28;20213;-72
2022/02/26 13:32:44;;;;;;;5.87;2.00;;;;;;;;;;4963782;28;20245;-71
2022/02/26 13:35:14;;;;;;;4.10;1.70;;;;;;;;;;4944384;28;20248;-72
2022/02/26 13:37:42;;;;;;;7.47;1.90;;;;;;;;;;4976187;28;20275;-72
2022/02/26 13:40:10;;;;;;;4.87;1.80;;;;;;;;;;4957633;28;20709;-72
2022/02/26 13:42:40;;;;;;;4.70;1.50;;;;;;;;;;4944286;28;20228;-72
2022/02/26 13:45:10;;;;;;;5.93;1.30;;;;;;;;;;4943441;28;20221;-73
2022/02/26 13:47:37;;;;;;;3.67;1.37;;;;;;;;;;4959038;28;20213;-72
2022/02/26 13:50:07;;;;;;;6.07;1.83;;;;;;;;;;4943653;28;20268;-72
2022/02/26 13:52:35;;;;;;;4.03;1.70;;;;;;;;;;4964127;28;20221;-72
2022/02/26 13:55:01;;;;;;;4.70;1.37;;;;;;;;;;4990470;28;20704;-72
2022/02/26 13:57:36;;;;;;;5.73;1.70;;;;;;;;;;4958447;28;20228;-71
2022/02/26 14:00:08;;;;;;;6.33;1.83;;;;;;;;;;4956598;28;20220;-72
2022/02/26 14:02:36;;;;;;;6.27;1.60;;;;;;;;;;4974862;28;20222;-72
2022/02/26 14:05:05;;;;;;;4.10;1.63;;;;;;;;;;4943078;28;20252;-72
2022/02/26 14:07:49;;;;;;;5.07;1.80;;;;;;;;;;4982073;28;20224;-72
2022/02/26 14:10:18;;;;;;;6.87;1.97;;;;;;;;;;4977507;28;20224;-71
2022/02/26 14:12:48;;;;;;;5.33;1.53;;;;;;;;;;4971936;28;20690;-71
2022/02/26 14:15:16;;;;;;;5.47;1.67;;;;;;;;;;4994266;28;20252;-71
2022/02/26 14:17:45;;;;;;;5.40;1.80;;;;;;;;;;4977829;28;20708;-71
2022/02/26 14:20:15;;;;;;;5.17;1.60;;;;;;;;;;4949302;28;20220;-71
2022/02/26 14:22:41;;;;;;;4.70;1.50;;;;;;;;;;4957631;28;20379;-70
2022/02/26 14:25:14;;;;;;;5.83;1.90;;;;;;;;;;4958477;28;20919;-71
2022/02/26 14:27:47;;;;;;;5.57;2.00;;;;;;;;;;4981542;28;20679;-71
2022/02/26 14:30:16;;;;;;;3.10;1.30;;;;;;;;;;4951492;28;20602;-71
2022/02/26 14:32:43;;;;;;;2.10;0.90;;;;;;;;;;4967027;28;20225;-71
2022/02/26 14:35:12;;;;;;;2.40;0.93;;;;;;;;;;4964989;28;20277;-70
2022/02/26 14:37:40;;;;;;;4.33;1.33;;;;;;;;;;4944817;28;20228;-71
2022/02/26 14:40:07;;;;;;;4.07;1.63;;;;;;;;;;4966126;28;20234;-71
2022/02/26 14:42:33;;;;;;;4.67;1.70;;;;;;;;;;4960636;28;20225;-71